Latest Coastal Weather Observations for Dennes Point

IDT60701

Issued at 9:52 am EST Friday 19 August 2022 (issued every 10 minutes, with the page automatically refreshed every 10 minutes)

About coastal observations | Map of coastal stations | Coastal observations for TAS | Marine services | Other Formats
Station Details ID: 094255 Name: DENNES POINT Lat: -43.06 Lon: 147.36 Height: 5.67 m
Data from the previous 72 hours. | See also: Recent months at Dennes Point
Date/Time
EST
Wind Sea
Height
m
Swell Vis
km
Cloud Weather Temp
°C
Press
MSL
hPa
Rain since
9am
mm
Dir  Spd
kts
Gust
kts
Height
m
Period
s
Dir
19/09:30am W 7 12 - - - - - - - 10.3 1005.7 0.0
19/09:00am W 8 14 - - - - - - - 9.7 1005.8 0.0
19/08:30am W 11 16 - - - - - - - 8.9 1005.7 0.0
19/08:00am W 9 14 - - - - - - - 8.3 1005.6 0.0
19/07:30am W 12 16 - - - - - - - 8.2 1005.3 0.0
19/07:00am NW 6 10 - - - - - - - 8.4 1005.2 0.0
19/06:30am WNW 6 8 - - - - - - - 7.8 1004.7 0.0
19/06:00am WNW 7 9 - - - - - - - 8.2 1004.3 0.0
19/05:30am WNW 5 8 - - - - - - - 8.1 1004.0 0.0
19/05:00am NW 5 8 - - - - - - - 8.4 1003.8 0.0
19/04:30am NW 5 7 - - - - - - - 9.0 1003.7 0.0
19/04:00am NW 8 10 - - - - - - - 9.1 1003.1 0.0
19/03:30am WNW 7 10 - - - - - - - 9.0 1002.7 0.0
19/03:00am WNW 9 15 - - - - - - - 9.2 1002.8 0.0
19/02:30am NNW 8 11 - - - - - - - 9.4 1002.5 0.0
19/02:00am NW 6 8 - - - - - - - 8.9 1001.9 0.0
19/01:30am NNW 8 12 - - - - - - - 9.5 1002.1 0.0
19/01:00am WNW 9 13 - - - - - - - 9.0 1001.7 0.0
19/12:30am WNW 6 11 - - - - - - - 9.9 1002.0 0.0
19/12:00am WNW 4 7 - - - - - - - 9.9 1001.9 0.0
 
Date/Time
EST
Wind Sea
Height
m
Swell Vis
km
Cloud Weather Temp
°C
Press
MSL
hPa
Rain since
9am
mm
Dir  Spd
kts
Gust
kts
Height
m
Period
s
Dir
18/11:30pm NW 5 8 - - - - - - - 10.0 1001.4 0.0
18/11:00pm N 11 16 - - - - - - - 10.4 1000.9 0.0
18/10:30pm NNW 7 10 - - - - - - - 10.4 1000.9 0.0
18/10:00pm N 9 13 - - - - - - - 10.6 1000.7 0.0
18/09:30pm NW 7 14 - - - - - - - 10.3 1000.7 0.0
18/09:00pm NW 8 15 - - - - - - - 10.3 1000.1 0.0
18/08:30pm WNW 12 18 - - - - - - - 10.4 999.8 0.0
18/08:00pm WNW 13 20 - - - - - - - 10.5 999.3 0.0
18/07:30pm W 17 22 - - - - - - - 10.5 998.7 0.0
18/07:00pm W 20 26 - - - - - - - 10.6 998.1 0.0
18/06:30pm W 23 31 - - - - - - - 10.9 997.1 0.0
18/06:01pm W 23 35 - - - - - - - 11.5 996.3 0.0
18/06:00pm W 22 30 - - - - - - - 11.5 996.3 0.0
18/05:30pm WNW 26 37 - - - - - - - 12.2 995.3 0.0
18/05:01pm WNW 19 31 - - - - - - - 12.9 993.8 0.0
18/05:00pm WNW 18 26 - - - - - - - 13.0 993.8 0.0
18/04:30pm WNW 25 37 - - - - - - - 14.3 992.9 0.0
18/04:19pm WNW 21 41 - - - - - - - 14.6 992.7 0.0
18/04:14pm WNW 15 37 - - - - - - - 15.0 992.5 0.0
18/04:00pm NW 14 24 - - - - - - - 14.9 992.0 0.0
18/03:30pm NW 13 19 - - - - - - - 15.2 991.7 0.0
18/03:00pm NW 16 28 - - - - - - - 15.9 991.8 0.0
18/02:57pm NW 14 28 - - - - - - - 15.9 991.8 0.0
18/02:30pm N 5 7 - - - - - - - 14.5 991.8 0.0
18/02:00pm N 7 11 - - - - - - - 14.4 991.9 0.0
18/01:30pm W 7 12 - - - - - - - 13.8 992.5 0.0
18/01:00pm W 17 27 - - - - - - - 12.5 992.6 0.0
18/12:54pm NW 12 27 - - - - - - - 13.7 993.1 0.0
18/12:30pm N 11 16 - - - - - - - 14.8 992.6 0.0
18/12:00pm N 12 15 - - - - - - - 13.8 993.1 0.0
18/11:30am N 13 17 - - - - - - - 13.9 993.6 0.0
18/11:00am N 8 11 - - - - - - - 15.3 994.3 0.0
18/10:30am N 11 17 - - - - - - - 15.7 995.3 0.0
18/10:00am NNW 13 18 - - - - - - - 15.5 995.6 0.0
18/09:30am N 17 22 - - - - - - - 14.8 995.7 0.0
18/09:00am NNW 15 20 - - - - - - - 14.7 996.3 0.0
18/08:30am NNW 13 20 - - - - - - - 14.0 997.0 0.0
18/08:00am NW 12 18 - - - - - - - 14.6 997.3 0.0
18/07:30am NW 9 14 - - - - - - - 14.7 997.8 0.0
18/07:00am NNW 8 13 - - - - - - - 14.7 997.7 0.0
18/06:30am NW 5 9 - - - - - - - 13.9 998.5 0.0
18/06:00am NW 7 12 - - - - - - - 14.4 998.8 0.0
18/05:30am NNE 3 7 - - - - - - - 13.0 998.7 0.0
18/05:00am WNW 10 15 - - - - - - - 14.5 998.8 0.0
18/04:30am SE 4 7 - - - - - - - 13.3 999.1 0.0
18/04:00am W 6 13 - - - - - - - 14.3 998.4 0.0
18/03:30am E 7 11 - - - - - - - 14.0 998.8 0.0
18/03:00am W 6 8 - - - - - - - 13.6 999.3 0.0
18/02:30am NNE 3 5 - - - - - - - 15.0 1000.2 0.0
18/02:00am N 6 11 - - - - - - - 14.6 1001.0 0.0
18/01:30am N 11 14 - - - - - - - 13.7 1001.6 0.0
18/01:00am NNW 10 15 - - - - - - - 14.0 1001.4 0.0
18/12:30am N 15 20 - - - - - - - 13.7 1002.2 0.0
18/12:00am N 10 15 - - - - - - - 13.6 1002.7 0.0
 
Date/Time
EST
Wind Sea
Height
m
Swell Vis
km
Cloud Weather Temp
°C
Press
MSL
hPa
Rain since
9am
mm
Dir  Spd
kts
Gust
kts
Height
m
Period
s
Dir
17/11:30pm NNE 13 20 - - - - - - - 13.4 1003.3 0.0
17/11:00pm NNE 13 20 - - - - - - - 13.2 1003.6 0.0
17/10:30pm NE 13 19 - - - - - - - 12.5 1004.1 0.0
17/10:00pm NNE 13 17 - - - - - - - 12.3 1004.6 0.0
17/09:30pm NNW 8 15 - - - - - - - 14.4 1005.1 0.0
17/09:00pm NNE 9 15 - - - - - - - 13.7 1005.1 0.0
17/08:30pm NNE 14 21 - - - - - - - 12.9 1004.7 0.0
17/08:00pm NNE 18 21 - - - - - - - 12.8 1004.6 0.0
17/07:30pm NNE 13 17 - - - - - - - 12.3 1005.4 0.0
17/07:00pm N 10 13 - - - - - - - 12.8 1006.2 0.0
17/06:30pm N 12 15 - - - - - - - 12.7 1006.7 0.0
17/06:00pm NNE 13 15 - - - - - - - 12.9 1006.7 0.0
17/05:30pm NNE 12 14 - - - - - - - 12.8 1006.5 0.0
17/05:00pm ENE 6 10 - - - - - - - 12.7 1007.2 0.0
17/04:30pm NE 9 11 - - - - - - - 12.8 1007.7 0.0
17/04:00pm ENE 7 10 - - - - - - - 12.8 1007.9 0.0
17/03:30pm NE 6 7 - - - - - - - 12.8 1008.7 0.0
17/03:00pm N 6 7 - - - - - - - 13.0 1009.0 0.0
17/02:30pm N 8 10 - - - - - - - 12.4 1009.7 0.0
17/02:00pm N 11 13 - - - - - - - 12.8 1009.9 0.0
17/01:30pm NNE 9 11 - - - - - - - 12.5 1010.6 0.0
17/01:00pm NNE 8 11 - - - - - - - 12.0 1011.2 0.0
17/12:30pm NNE 6 8 - - - - - - - 10.9 1012.0 0.0
17/12:00pm NNE 8 11 - - - - - - - 11.3 1013.1 0.0
17/11:30am NNE 4 5 - - - - - - - 10.0 1013.9 0.0
17/11:00am N 7 8 - - - - - - - 10.2 1014.2 0.0
17/10:30am NNE 7 9 - - - - - - - 9.7 1014.6 0.0
17/10:00am NE 8 9 - - - - - - - 9.1 1015.0 0.0
17/09:30am N 7 8 - - - - - - - 8.4 1015.5 0.0
17/09:00am NNE 8 8 - - - - - - - 8.5 1015.2 0.2
17/08:30am NNE 8 9 - - - - - - - 8.6 1015.6 0.2
17/08:00am N 8 10 - - - - - - - 9.2 1015.5 0.2
17/07:30am N 6 7 - - - - - - - 9.1 1015.5 0.2
17/07:00am N 6 7 - - - - - - - 8.8 1015.7 0.2
17/06:30am NNE 1 3 - - - - - - - 8.8 1015.5 0.2
17/06:00am SSW 2 3 - - - - - - - 8.3 1015.7 0.2
17/05:30am S 5 6 - - - - - - - 8.2 1015.7 0.2
17/05:00am S 5 7 - - - - - - - 8.1 1015.3 0.2
17/04:30am SSW 5 6 - - - - - - - 7.9 1015.1 0.2
17/04:00am SSW 5 6 - - - - - - - 8.3 1015.0 0.2
17/03:30am S 3 4 - - - - - - - 8.5 1014.8 0.2
17/03:00am S 3 3 - - - - - - - 8.2 1014.8 0.2
17/02:30am SSW 4 5 - - - - - - - 8.2 1015.0 0.2
17/02:00am CALM 0 3 - - - - - - - 8.3 1015.1 0.2
17/01:30am SW 2 2 - - - - - - - 8.1 1014.8 0.2
17/01:00am SSW 3 5 - - - - - - - 7.8 1014.9 0.2
17/12:30am SSW 5 7 - - - - - - - 8.8 1014.8 0.2
17/12:00am S 5 6 - - - - - - - 9.2 1014.7 0.2
 
Date/Time
EST
Wind Sea
Height
m
Swell Vis
km
Cloud Weather Temp
°C
Press
MSL
hPa
Rain since
9am
mm
Dir  Spd
kts
Gust
kts
Height
m
Period
s
Dir
16/11:30pm ESE 3 4 - - - - - - - 9.5 1015.1 0.2
16/11:00pm SSE 4 7 - - - - - - - 9.7 1014.6 0.2
16/10:30pm S 5 9 - - - - - - - 10.0 1014.8 0.2
16/10:00pm S 4 6 - - - - - - - 10.0 1014.9 0.2
16/09:30pm SSW 3 5 - - - - - - - 9.7 1014.6 0.2
16/09:00pm SSE 3 7 - - - - - - - 9.9 1014.6 0.2
16/08:30pm S 5 6 - - - - - - - 9.6 1014.1 0.2
16/08:00pm SSW 6 8 - - - - - - - 10.1 1013.8 0.2
16/07:30pm SW 7 13 - - - - - - - 10.6 1013.4 0.2
16/07:00pm SW 8 14 - - - - - - - 10.6 1012.6 0.2
16/06:30pm SW 10 14 - - - - - - - 10.4 1011.8 0.2
16/06:00pm SSW 8 12 - - - - - - - 10.5 1011.0 0.2
16/05:30pm SSW 8 13 - - - - - - - 10.9 1010.8 0.2
16/05:00pm SSW 8 15 - - - - - - - 11.3 1010.2 0.2
16/04:30pm SSW 11 18 - - - - - - - 12.1 1009.6 0.2
16/04:00pm SSW 11 21 - - - - - - - 13.0 1009.2 0.2
16/03:30pm SW 14 20 - - - - - - - 13.0 1008.6 0.2
16/03:00pm SSW 12 18 - - - - - - - 13.4 1008.2 0.2
16/02:30pm SW 11 17 - - - - - - - 14.0 1007.8 0.2
16/02:00pm SSW 9 16 - - - - - - - 13.0 1007.4 0.2
16/01:30pm SSW 9 14 - - - - - - - 13.1 1007.1 0.2
16/01:00pm SW 10 15 - - - - - - - 13.4 1006.9 0.2
16/12:30pm SW 12 17 - - - - - - - 12.8 1006.5 0.2
16/12:00pm SW 10 16 - - - - - - - 13.3 1006.5 0.2
16/11:30am SW 7 14 - - - - - - - 12.0 1006.6 0.2
16/11:00am SW 5 6 - - - - - - - 11.9 1006.2 0.2
16/10:30am SW 4 5 - - - - - - - 11.7 1005.9 0.0
16/10:00am SW 5 6 - - - - - - - 11.7 1005.5 0.0

Other formats

Comma delimited format used in spreadsheet applications
http://www.bom.gov.au/fwo/IDT60701/IDT60701.94988.axf

JavaScript Object Notation format (JSON) in row-major order
http://www.bom.gov.au/fwo/IDT60701/IDT60701.94988.json

Data quality

Most of these data are generated automatically and are frequently updated. Quality checks on data are not normally performed. It is possible for incorrect values to appear. Refer to information at About Latest Weather Observations and please check the disclaimer before using these data.